sensor_id;sensor_type;location;lat;lon;timestamp;P1;durP1;ratioP1;P2;durP2;ratioP2
26040;SDS011;13816;53.628;9.950;2022-12-16T00:00:10;28.03;;;20.23;;
26040;SDS011;13816;53.628;9.950;2022-12-16T00:02:39;29.53;;;19.60;;
26040;SDS011;13816;53.628;9.950;2022-12-16T00:05:20;30.77;;;19.90;;
26040;SDS011;13816;53.628;9.950;2022-12-16T00:07:54;32.67;;;20.23;;
26040;SDS011;13816;53.628;9.950;2022-12-16T00:10:56;33.67;;;19.80;;
26040;SDS011;13816;53.628;9.950;2022-12-16T00:13:29;32.20;;;19.50;;
26040;SDS011;13816;53.628;9.950;2022-12-16T00:16:23;27.60;;;19.13;;
26040;SDS011;13816;53.628;9.950;2022-12-16T00:19:09;31.90;;;21.10;;
26040;SDS011;13816;53.628;9.950;2022-12-16T00:22:35;29.80;;;19.37;;
26040;SDS011;13816;53.628;9.950;2022-12-16T00:25:02;33.77;;;20.53;;
26040;SDS011;13816;53.628;9.950;2022-12-16T00:27:30;33.27;;;20.07;;
26040;SDS011;13816;53.628;9.950;2022-12-16T00:30:14;30.53;;;20.87;;
26040;SDS011;13816;53.628;9.950;2022-12-16T00:33:01;29.20;;;19.93;;
26040;SDS011;13816;53.628;9.950;2022-12-16T00:35:40;39.87;;;22.10;;
26040;SDS011;13816;53.628;9.950;2022-12-16T00:38:32;25.03;;;19.20;;
26040;SDS011;13816;53.628;9.950;2022-12-16T00:41:19;31.07;;;19.83;;
26040;SDS011;13816;53.628;9.950;2022-12-16T00:44:11;27.80;;;19.07;;
26040;SDS011;13816;53.628;9.950;2022-12-16T00:49:57;31.53;;;19.43;;
26040;SDS011;13816;53.628;9.950;2022-12-16T00:52:49;28.23;;;20.77;;
26040;SDS011;13816;53.628;9.950;2022-12-16T00:55:26;29.67;;;21.03;;
26040;SDS011;13816;53.628;9.950;2022-12-16T00:58:06;34.10;;;21.40;;
26040;SDS011;13816;53.628;9.950;2022-12-16T01:00:40;32.03;;;21.40;;
26040;SDS011;13816;53.628;9.950;2022-12-16T01:03:25;35.17;;;21.27;;
26040;SDS011;13816;53.628;9.950;2022-12-16T01:06:21;30.80;;;21.57;;
26040;SDS011;13816;53.628;9.950;2022-12-16T01:09:12;29.40;;;19.87;;
26040;SDS011;13816;53.628;9.950;2022-12-16T01:11:54;32.87;;;22.20;;
26040;SDS011;13816;53.628;9.950;2022-12-16T01:14:25;45.10;;;20.80;;
26040;SDS011;13816;53.628;9.950;2022-12-16T01:17:25;31.67;;;21.27;;
26040;SDS011;13816;53.628;9.950;2022-12-16T01:19:55;42.43;;;21.53;;
26040;SDS011;13816;53.628;9.950;2022-12-16T01:22:39;30.67;;;21.20;;
26040;SDS011;13816;53.628;9.950;2022-12-16T01:55:11;35.20;;;22.37;;
26040;SDS011;13816;53.628;9.950;2022-12-16T01:57:59;30.40;;;20.50;;
26040;SDS011;13816;53.628;9.950;2022-12-16T02:03:37;36.10;;;21.63;;
26040;SDS011;13816;53.628;9.950;2022-12-16T02:06:52;36.90;;;22.13;;
26040;SDS011;13816;53.628;9.950;2022-12-16T02:12:10;29.27;;;21.50;;
26040;SDS011;13816;53.628;9.950;2022-12-16T02:20:59;37.90;;;22.87;;
26040;SDS011;13816;53.628;9.950;2022-12-16T03:25:27;32.53;;;21.43;;
26040;SDS011;13816;53.628;9.950;2022-12-16T03:37:19;30.13;;;20.00;;
26040;SDS011;13816;53.628;9.950;2022-12-16T03:40:05;28.80;;;19.87;;
26040;SDS011;13816;53.628;9.950;2022-12-16T03:42:45;30.40;;;20.60;;
26040;SDS011;13816;53.628;9.950;2022-12-16T03:45:42;31.87;;;21.80;;
26040;SDS011;13816;53.628;9.950;2022-12-16T03:48:20;28.60;;;20.00;;
26040;SDS011;13816;53.628;9.950;2022-12-16T03:50:58;31.67;;;21.37;;
26040;SDS011;13816;53.628;9.950;2022-12-16T03:53:40;27.80;;;19.87;;
26040;SDS011;13816;53.628;9.950;2022-12-16T03:56:19;29.53;;;20.60;;
26040;SDS011;13816;53.628;9.950;2022-12-16T03:59:12;30.43;;;19.10;;
26040;SDS011;13816;53.628;9.950;2022-12-16T04:01:55;34.10;;;20.20;;
26040;SDS011;13816;53.628;9.950;2022-12-16T04:04:35;33.50;;;21.70;;
26040;SDS011;13816;53.628;9.950;2022-12-16T04:07:14;30.27;;;20.90;;
26040;SDS011;13816;53.628;9.950;2022-12-16T04:09:50;35.57;;;20.00;;
26040;SDS011;13816;53.628;9.950;2022-12-16T04:12:26;32.53;;;19.60;;
26040;SDS011;13816;53.628;9.950;2022-12-16T04:18:41;32.10;;;20.33;;
26040;SDS011;13816;53.628;9.950;2022-12-16T04:21:39;30.10;;;21.30;;
26040;SDS011;13816;53.628;9.950;2022-12-16T04:24:51;32.27;;;20.70;;
26040;SDS011;13816;53.628;9.950;2022-12-16T04:27:33;35.57;;;20.70;;
26040;SDS011;13816;53.628;9.950;2022-12-16T04:30:15;30.93;;;20.40;;
26040;SDS011;13816;53.628;9.950;2022-12-16T04:33:04;37.57;;;22.17;;
26040;SDS011;13816;53.628;9.950;2022-12-16T04:36:08;27.50;;;19.77;;
26040;SDS011;13816;53.628;9.950;2022-12-16T04:38:59;28.17;;;19.87;;
26040;SDS011;13816;53.628;9.950;2022-12-16T04:41:52;33.43;;;21.40;;
26040;SDS011;13816;53.628;9.950;2022-12-16T04:44:43;30.60;;;20.77;;
26040;SDS011;13816;53.628;9.950;2022-12-16T04:47:58;33.50;;;21.03;;
26040;SDS011;13816;53.628;9.950;2022-12-16T04:50:46;28.30;;;20.83;;
26040;SDS011;13816;53.628;9.950;2022-12-16T04:53:56;35.43;;;22.20;;
26040;SDS011;13816;53.628;9.950;2022-12-16T04:57:08;32.30;;;21.93;;
26040;SDS011;13816;53.628;9.950;2022-12-16T04:59:53;37.10;;;22.03;;
26040;SDS011;13816;53.628;9.950;2022-12-16T05:02:43;31.10;;;21.20;;
26040;SDS011;13816;53.628;9.950;2022-12-16T05:05:59;32.23;;;21.07;;
26040;SDS011;13816;53.628;9.950;2022-12-16T05:12:55;27.97;;;19.50;;
26040;SDS011;13816;53.628;9.950;2022-12-16T05:15:55;32.67;;;21.37;;
26040;SDS011;13816;53.628;9.950;2022-12-16T05:18:45;31.90;;;19.80;;
26040;SDS011;13816;53.628;9.950;2022-12-16T05:21:30;27.43;;;20.60;;
26040;SDS011;13816;53.628;9.950;2022-12-16T05:24:25;29.17;;;20.37;;
26040;SDS011;13816;53.628;9.950;2022-12-16T05:27:10;34.13;;;23.33;;
26040;SDS011;13816;53.628;9.950;2022-12-16T05:29:54;33.60;;;20.20;;
26040;SDS011;13816;53.628;9.950;2022-12-16T05:32:41;30.60;;;21.27;;
26040;SDS011;13816;53.628;9.950;2022-12-16T05:35:25;32.00;;;20.83;;
26040;SDS011;13816;53.628;9.950;2022-12-16T05:38:09;36.60;;;21.77;;
26040;SDS011;13816;53.628;9.950;2022-12-16T05:40:54;30.90;;;19.77;;
26040;SDS011;13816;53.628;9.950;2022-12-16T05:43:42;30.43;;;19.20;;
26040;SDS011;13816;53.628;9.950;2022-12-16T05:46:27;34.90;;;21.50;;
26040;SDS011;13816;53.628;9.950;2022-12-16T05:49:11;28.63;;;20.83;;
26040;SDS011;13816;53.628;9.950;2022-12-16T05:51:56;29.70;;;22.70;;
26040;SDS011;13816;53.628;9.950;2022-12-16T05:57:53;31.20;;;21.70;;
26040;SDS011;13816;53.628;9.950;2022-12-16T06:00:40;33.50;;;22.20;;
26040;SDS011;13816;53.628;9.950;2022-12-16T06:03:27;36.20;;;22.60;;
26040;SDS011;13816;53.628;9.950;2022-12-16T06:06:21;32.87;;;23.10;;
26040;SDS011;13816;53.628;9.950;2022-12-16T06:09:26;31.83;;;22.00;;
26040;SDS011;13816;53.628;9.950;2022-12-16T06:12:11;34.50;;;23.50;;
26040;SDS011;13816;53.628;9.950;2022-12-16T06:15:14;36.07;;;23.83;;
26040;SDS011;13816;53.628;9.950;2022-12-16T06:18:08;26.90;;;20.00;;
26040;SDS011;13816;53.628;9.950;2022-12-16T06:20:53;31.83;;;21.13;;
26040;SDS011;13816;53.628;9.950;2022-12-16T06:23:37;29.97;;;20.80;;
26040;SDS011;13816;53.628;9.950;2022-12-16T06:26:25;32.87;;;20.90;;
26040;SDS011;13816;53.628;9.950;2022-12-16T06:29:13;34.90;;;21.67;;
26040;SDS011;13816;53.628;9.950;2022-12-16T06:31:57;37.20;;;21.80;;
26040;SDS011;13816;53.628;9.950;2022-12-16T06:34:51;34.70;;;21.53;;
26040;SDS011;13816;53.628;9.950;2022-12-16T06:37:35;32.40;;;21.93;;
26040;SDS011;13816;53.628;9.950;2022-12-16T06:40:19;27.63;;;20.40;;
26040;SDS011;13816;53.628;9.950;2022-12-16T06:43:04;37.50;;;22.20;;
26040;SDS011;13816;53.628;9.950;2022-12-16T06:45:48;32.13;;;22.40;;
26040;SDS011;13816;53.628;9.950;2022-12-16T06:48:35;32.07;;;19.73;;
26040;SDS011;13816;53.628;9.950;2022-12-16T06:51:22;33.33;;;21.97;;
26040;SDS011;13816;53.628;9.950;2022-12-16T06:54:09;33.43;;;22.70;;
26040;SDS011;13816;53.628;9.950;2022-12-16T06:57:01;32.67;;;21.17;;
26040;SDS011;13816;53.628;9.950;2022-12-16T06:59:45;33.33;;;23.47;;
26040;SDS011;13816;53.628;9.950;2022-12-16T07:02:34;32.87;;;22.30;;
26040;SDS011;13816;53.628;9.950;2022-12-16T07:05:28;36.63;;;22.10;;
26040;SDS011;13816;53.628;9.950;2022-12-16T07:08:15;40.40;;;23.77;;
26040;SDS011;13816;53.628;9.950;2022-12-16T07:11:02;35.30;;;23.13;;
26040;SDS011;13816;53.628;9.950;2022-12-16T07:13:46;39.50;;;22.80;;
26040;SDS011;13816;53.628;9.950;2022-12-16T07:16:34;35.50;;;23.50;;
26040;SDS011;13816;53.628;9.950;2022-12-16T07:19:21;32.77;;;21.97;;
26040;SDS011;13816;53.628;9.950;2022-12-16T07:22:05;29.30;;;20.60;;
26040;SDS011;13816;53.628;9.950;2022-12-16T07:24:50;35.73;;;22.37;;
26040;SDS011;13816;53.628;9.950;2022-12-16T07:27:34;38.03;;;23.37;;
26040;SDS011;13816;53.628;9.950;2022-12-16T07:30:21;38.00;;;22.67;;
26040;SDS011;13816;53.628;9.950;2022-12-16T07:33:09;41.03;;;25.30;;
26040;SDS011;13816;53.628;9.950;2022-12-16T07:35:53;37.70;;;23.30;;
26040;SDS011;13816;53.628;9.950;2022-12-16T07:38:37;36.63;;;24.13;;
26040;SDS011;13816;53.628;9.950;2022-12-16T07:49:03;36.10;;;24.10;;
26040;SDS011;13816;53.628;9.950;2022-12-16T07:55:55;43.70;;;24.10;;
26040;SDS011;13816;53.628;9.950;2022-12-16T07:58:43;39.30;;;24.03;;
26040;SDS011;13816;53.628;9.950;2022-12-16T08:04:34;48.03;;;24.77;;
26040;SDS011;13816;53.628;9.950;2022-12-16T08:07:50;37.07;;;24.20;;
26040;SDS011;13816;53.628;9.950;2022-12-16T08:10:37;32.90;;;23.07;;
26040;SDS011;13816;53.628;9.950;2022-12-16T08:13:30;42.83;;;25.67;;
26040;SDS011;13816;53.628;9.950;2022-12-16T08:16:34;41.93;;;25.43;;
26040;SDS011;13816;53.628;9.950;2022-12-16T08:19:41;42.07;;;27.30;;
26040;SDS011;13816;53.628;9.950;2022-12-16T08:22:46;41.07;;;26.10;;
26040;SDS011;13816;53.628;9.950;2022-12-16T08:29:12;37.93;;;24.80;;
26040;SDS011;13816;53.628;9.950;2022-12-16T08:38:34;47.30;;;28.63;;
26040;SDS011;13816;53.628;9.950;2022-12-16T08:41:24;43.10;;;27.93;;
26040;SDS011;13816;53.628;9.950;2022-12-16T08:44:32;43.33;;;26.30;;
26040;SDS011;13816;53.628;9.950;2022-12-16T08:47:29;40.73;;;27.17;;
26040;SDS011;13816;53.628;9.950;2022-12-16T08:50:25;42.83;;;26.60;;
26040;SDS011;13816;53.628;9.950;2022-12-16T09:05:24;37.53;;;24.90;;
26040;SDS011;13816;53.628;9.950;2022-12-16T09:13:48;38.10;;;25.47;;
26040;SDS011;13816;53.628;9.950;2022-12-16T09:33:38;41.97;;;30.40;;
26040;SDS011;13816;53.628;9.950;2022-12-16T09:45:21;41.17;;;28.57;;
26040;SDS011;13816;53.628;9.950;2022-12-16T10:09:09;50.67;;;31.27;;
26040;SDS011;13816;53.628;9.950;2022-12-16T12:22:56;44.20;;;30.37;;
26040;SDS011;13816;53.628;9.950;2022-12-16T14:13:42;45.73;;;33.60;;
26040;SDS011;13816;53.628;9.950;2022-12-16T14:16:54;55.47;;;35.67;;
26040;SDS011;13816;53.628;9.950;2022-12-16T14:20:38;46.30;;;33.20;;
26040;SDS011;13816;53.628;9.950;2022-12-16T14:23:56;51.70;;;35.20;;
26040;SDS011;13816;53.628;9.950;2022-12-16T15:35:48;53.97;;;33.50;;
26040;SDS011;13816;53.628;9.950;2022-12-16T15:39:43;52.17;;;34.60;;
26040;SDS011;13816;53.628;9.950;2022-12-16T15:42:32;51.27;;;35.43;;
26040;SDS011;13816;53.628;9.950;2022-12-16T15:45:33;59.97;;;35.73;;
26040;SDS011;13816;53.628;9.950;2022-12-16T15:48:31;58.50;;;36.73;;
26040;SDS011;13816;53.628;9.950;2022-12-16T15:54:22;59.20;;;36.80;;
26040;SDS011;13816;53.628;9.950;2022-12-16T15:57:27;57.33;;;36.17;;
26040;SDS011;13816;53.628;9.950;2022-12-16T16:00:27;52.23;;;35.73;;
26040;SDS011;13816;53.628;9.950;2022-12-16T16:03:20;79.50;;;46.37;;
26040;SDS011;13816;53.628;9.950;2022-12-16T16:06:26;69.07;;;43.20;;
26040;SDS011;13816;53.628;9.950;2022-12-16T16:12:33;72.73;;;43.80;;
26040;SDS011;13816;53.628;9.950;2022-12-16T16:15:27;73.07;;;46.63;;
26040;SDS011;13816;53.628;9.950;2022-12-16T16:18:19;76.87;;;46.33;;
26040;SDS011;13816;53.628;9.950;2022-12-16T16:21:04;65.20;;;44.93;;
26040;SDS011;13816;53.628;9.950;2022-12-16T16:23:51;70.97;;;41.77;;
26040;SDS011;13816;53.628;9.950;2022-12-16T16:26:39;77.93;;;44.50;;
26040;SDS011;13816;53.628;9.950;2022-12-16T16:29:28;71.93;;;41.87;;
26040;SDS011;13816;53.628;9.950;2022-12-16T16:32:20;65.67;;;41.90;;
26040;SDS011;13816;53.628;9.950;2022-12-16T16:35:21;78.27;;;43.50;;
26040;SDS011;13816;53.628;9.950;2022-12-16T16:38:07;68.47;;;45.47;;
26040;SDS011;13816;53.628;9.950;2022-12-16T16:41:37;70.87;;;43.77;;
26040;SDS011;13816;53.628;9.950;2022-12-16T16:48:43;63.07;;;42.43;;
26040;SDS011;13816;53.628;9.950;2022-12-16T16:51:39;62.17;;;39.77;;
26040;SDS011;13816;53.628;9.950;2022-12-16T16:54:37;73.37;;;39.97;;
26040;SDS011;13816;53.628;9.950;2022-12-16T16:57:33;57.90;;;39.03;;
26040;SDS011;13816;53.628;9.950;2022-12-16T17:00:22;65.13;;;40.40;;
26040;SDS011;13816;53.628;9.950;2022-12-16T17:03:07;84.50;;;45.50;;
26040;SDS011;13816;53.628;9.950;2022-12-16T17:06:11;71.07;;;43.87;;
26040;SDS011;13816;53.628;9.950;2022-12-16T17:09:13;71.47;;;44.63;;
26040;SDS011;13816;53.628;9.950;2022-12-16T17:12:04;68.43;;;43.10;;
26040;SDS011;13816;53.628;9.950;2022-12-16T17:15:33;65.70;;;42.67;;
26040;SDS011;13816;53.628;9.950;2022-12-16T17:18:33;60.93;;;42.07;;
26040;SDS011;13816;53.628;9.950;2022-12-16T17:21:18;63.83;;;40.80;;
26040;SDS011;13816;53.628;9.950;2022-12-16T17:24:06;61.40;;;40.03;;
26040;SDS011;13816;53.628;9.950;2022-12-16T17:26:54;71.47;;;42.63;;
26040;SDS011;13816;53.628;9.950;2022-12-16T17:29:42;60.43;;;41.87;;
26040;SDS011;13816;53.628;9.950;2022-12-16T17:32:26;61.47;;;38.73;;
26040;SDS011;13816;53.628;9.950;2022-12-16T17:35:13;70.40;;;40.03;;
26040;SDS011;13816;53.628;9.950;2022-12-16T17:38:00;60.07;;;40.37;;
26040;SDS011;13816;53.628;9.950;2022-12-16T17:41:00;72.17;;;41.13;;
26040;SDS011;13816;53.628;9.950;2022-12-16T17:44:06;59.40;;;39.87;;
26040;SDS011;13816;53.628;9.950;2022-12-16T17:47:22;65.00;;;40.87;;
26040;SDS011;13816;53.628;9.950;2022-12-16T17:50:19;62.13;;;38.87;;
26040;SDS011;13816;53.628;9.950;2022-12-16T17:53:04;58.00;;;39.53;;
26040;SDS011;13816;53.628;9.950;2022-12-16T17:58:54;59.40;;;39.70;;
26040;SDS011;13816;53.628;9.950;2022-12-16T18:05:30;62.90;;;39.93;;
26040;SDS011;13816;53.628;9.950;2022-12-16T18:08:56;67.17;;;39.87;;
26040;SDS011;13816;53.628;9.950;2022-12-16T18:12:08;74.17;;;41.13;;
26040;SDS011;13816;53.628;9.950;2022-12-16T18:18:33;61.00;;;43.10;;
26040;SDS011;13816;53.628;9.950;2022-12-16T18:21:30;61.57;;;41.20;;
26040;SDS011;13816;53.628;9.950;2022-12-16T18:24:25;64.50;;;40.10;;
26040;SDS011;13816;53.628;9.950;2022-12-16T18:27:10;65.77;;;43.97;;
26040;SDS011;13816;53.628;9.950;2022-12-16T18:30:03;62.60;;;41.00;;
26040;SDS011;13816;53.628;9.950;2022-12-16T18:32:57;64.70;;;41.90;;
26040;SDS011;13816;53.628;9.950;2022-12-16T18:35:42;61.13;;;41.17;;
26040;SDS011;13816;53.628;9.950;2022-12-16T18:38:47;67.53;;;40.00;;
26040;SDS011;13816;53.628;9.950;2022-12-16T18:41:52;60.47;;;41.47;;
26040;SDS011;13816;53.628;9.950;2022-12-16T18:44:39;68.50;;;42.07;;
26040;SDS011;13816;53.628;9.950;2022-12-16T18:47:48;62.10;;;40.43;;
26040;SDS011;13816;53.628;9.950;2022-12-16T18:50:39;61.37;;;42.63;;
26040;SDS011;13816;53.628;9.950;2022-12-16T18:53:50;68.70;;;42.07;;
26040;SDS011;13816;53.628;9.950;2022-12-16T19:00:03;68.67;;;44.67;;
26040;SDS011;13816;53.628;9.950;2022-12-16T19:02:49;68.90;;;44.60;;
26040;SDS011;13816;53.628;9.950;2022-12-16T19:05:51;69.40;;;42.80;;
26040;SDS011;13816;53.628;9.950;2022-12-16T19:08:49;72.17;;;43.20;;
26040;SDS011;13816;53.628;9.950;2022-12-16T19:11:34;75.03;;;45.13;;
26040;SDS011;13816;53.628;9.950;2022-12-16T19:14:18;71.37;;;47.03;;
26040;SDS011;13816;53.628;9.950;2022-12-16T19:17:05;78.50;;;48.27;;
26040;SDS011;13816;53.628;9.950;2022-12-16T19:19:53;78.40;;;48.30;;
26040;SDS011;13816;53.628;9.950;2022-12-16T19:22:51;69.20;;;45.67;;
26040;SDS011;13816;53.628;9.950;2022-12-16T19:25:38;82.33;;;45.53;;
26040;SDS011;13816;53.628;9.950;2022-12-16T19:28:22;391.13;;;192.77;;
26040;SDS011;13816;53.628;9.950;2022-12-16T19:31:07;110.30;;;61.80;;
26040;SDS011;13816;53.628;9.950;2022-12-16T19:33:57;101.00;;;55.70;;
26040;SDS011;13816;53.628;9.950;2022-12-16T19:36:41;84.40;;;50.47;;
26040;SDS011;13816;53.628;9.950;2022-12-16T19:39:35;78.07;;;47.30;;
26040;SDS011;13816;53.628;9.950;2022-12-16T19:42:37;72.43;;;45.20;;
26040;SDS011;13816;53.628;9.950;2022-12-16T19:45:40;74.57;;;44.93;;
26040;SDS011;13816;53.628;9.950;2022-12-16T19:48:40;70.20;;;45.50;;
26040;SDS011;13816;53.628;9.950;2022-12-16T19:51:24;69.93;;;46.27;;
26040;SDS011;13816;53.628;9.950;2022-12-16T19:54:17;78.00;;;49.80;;
26040;SDS011;13816;53.628;9.950;2022-12-16T19:57:09;81.00;;;50.80;;
26040;SDS011;13816;53.628;9.950;2022-12-16T20:00:03;88.47;;;50.37;;
26040;SDS011;13816;53.628;9.950;2022-12-16T20:02:57;84.23;;;52.50;;
26040;SDS011;13816;53.628;9.950;2022-12-16T20:05:45;93.30;;;52.03;;
26040;SDS011;13816;53.628;9.950;2022-12-16T20:08:33;85.10;;;51.30;;
26040;SDS011;13816;53.628;9.950;2022-12-16T20:11:17;88.63;;;52.60;;
26040;SDS011;13816;53.628;9.950;2022-12-16T20:14:12;83.03;;;52.00;;
26040;SDS011;13816;53.628;9.950;2022-12-16T20:17:17;75.10;;;50.63;;
26040;SDS011;13816;53.628;9.950;2022-12-16T20:20:03;75.77;;;49.60;;
26040;SDS011;13816;53.628;9.950;2022-12-16T20:22:48;77.73;;;50.80;;
26040;SDS011;13816;53.628;9.950;2022-12-16T20:25:34;78.83;;;49.93;;
26040;SDS011;13816;53.628;9.950;2022-12-16T20:28:21;78.27;;;51.13;;
26040;SDS011;13816;53.628;9.950;2022-12-16T20:31:19;77.60;;;49.80;;
26040;SDS011;13816;53.628;9.950;2022-12-16T20:34:04;76.73;;;52.80;;
26040;SDS011;13816;53.628;9.950;2022-12-16T20:36:57;74.27;;;49.37;;
26040;SDS011;13816;53.628;9.950;2022-12-16T20:39:42;76.13;;;47.30;;
26040;SDS011;13816;53.628;9.950;2022-12-16T20:42:28;67.17;;;47.40;;
26040;SDS011;13816;53.628;9.950;2022-12-16T20:45:13;75.90;;;47.77;;
26040;SDS011;13816;53.628;9.950;2022-12-16T20:48:02;69.20;;;46.10;;
26040;SDS011;13816;53.628;9.950;2022-12-16T20:50:57;76.73;;;45.33;;
26040;SDS011;13816;53.628;9.950;2022-12-16T20:53:48;66.63;;;44.07;;
26040;SDS011;13816;53.628;9.950;2022-12-16T20:56:35;78.37;;;46.40;;
26040;SDS011;13816;53.628;9.950;2022-12-16T20:59:19;69.97;;;44.80;;
26040;SDS011;13816;53.628;9.950;2022-12-16T21:02:09;73.57;;;46.87;;
26040;SDS011;13816;53.628;9.950;2022-12-16T21:04:55;72.53;;;45.27;;
26040;SDS011;13816;53.628;9.950;2022-12-16T21:07:46;73.93;;;47.63;;
26040;SDS011;13816;53.628;9.950;2022-12-16T21:10:36;71.20;;;47.23;;
26040;SDS011;13816;53.628;9.950;2022-12-16T21:13:29;72.97;;;47.20;;
26040;SDS011;13816;53.628;9.950;2022-12-16T21:16:13;78.70;;;47.37;;
26040;SDS011;13816;53.628;9.950;2022-12-16T21:19:01;70.67;;;44.80;;
26040;SDS011;13816;53.628;9.950;2022-12-16T21:21:54;77.03;;;48.80;;
26040;SDS011;13816;53.628;9.950;2022-12-16T21:24:41;89.07;;;48.10;;
26040;SDS011;13816;53.628;9.950;2022-12-16T21:27:26;92.00;;;48.53;;
26040;SDS011;13816;53.628;9.950;2022-12-16T21:30:14;70.80;;;48.93;;
26040;SDS011;13816;53.628;9.950;2022-12-16T21:33:41;85.27;;;50.50;;
26040;SDS011;13816;53.628;9.950;2022-12-16T21:36:26;78.77;;;48.53;;
26040;SDS011;13816;53.628;9.950;2022-12-16T21:39:11;73.30;;;50.83;;
26040;SDS011;13816;53.628;9.950;2022-12-16T21:42:02;76.37;;;49.40;;
26040;SDS011;13816;53.628;9.950;2022-12-16T21:44:50;82.27;;;49.73;;
26040;SDS011;13816;53.628;9.950;2022-12-16T21:47:37;79.00;;;49.83;;
26040;SDS011;13816;53.628;9.950;2022-12-16T21:50:27;82.83;;;50.23;;
26040;SDS011;13816;53.628;9.950;2022-12-16T21:53:12;75.67;;;47.70;;
26040;SDS011;13816;53.628;9.950;2022-12-16T21:56:25;64.93;;;46.47;;
26040;SDS011;13816;53.628;9.950;2022-12-16T21:59:13;80.53;;;45.87;;
26040;SDS011;13816;53.628;9.950;2022-12-16T22:02:01;76.73;;;46.97;;
26040;SDS011;13816;53.628;9.950;2022-12-16T22:04:54;65.17;;;42.57;;
26040;SDS011;13816;53.628;9.950;2022-12-16T22:08:13;74.83;;;45.40;;
26040;SDS011;13816;53.628;9.950;2022-12-16T22:10:58;70.03;;;47.37;;
26040;SDS011;13816;53.628;9.950;2022-12-16T22:14:03;74.80;;;44.27;;
26040;SDS011;13816;53.628;9.950;2022-12-16T22:16:50;70.63;;;43.07;;
26040;SDS011;13816;53.628;9.950;2022-12-16T22:19:46;67.10;;;45.10;;
26040;SDS011;13816;53.628;9.950;2022-12-16T22:22:31;73.10;;;46.17;;
26040;SDS011;13816;53.628;9.950;2022-12-16T22:25:18;73.67;;;44.80;;
26040;SDS011;13816;53.628;9.950;2022-12-16T22:28:04;67.53;;;44.67;;
26040;SDS011;13816;53.628;9.950;2022-12-16T22:30:56;75.07;;;46.57;;
26040;SDS011;13816;53.628;9.950;2022-12-16T22:33:50;68.47;;;44.27;;
26040;SDS011;13816;53.628;9.950;2022-12-16T22:36:36;67.57;;;45.40;;
26040;SDS011;13816;53.628;9.950;2022-12-16T22:39:26;76.80;;;48.80;;
26040;SDS011;13816;53.628;9.950;2022-12-16T22:42:36;74.70;;;48.30;;
26040;SDS011;13816;53.628;9.950;2022-12-16T22:45:21;81.73;;;48.57;;
26040;SDS011;13816;53.628;9.950;2022-12-16T22:48:05;74.13;;;47.03;;
26040;SDS011;13816;53.628;9.950;2022-12-16T22:50:51;76.13;;;47.43;;
26040;SDS011;13816;53.628;9.950;2022-12-16T22:53:36;82.47;;;50.43;;
26040;SDS011;13816;53.628;9.950;2022-12-16T22:56:24;65.80;;;42.03;;
26040;SDS011;13816;53.628;9.950;2022-12-16T22:59:14;75.13;;;46.77;;
26040;SDS011;13816;53.628;9.950;2022-12-16T23:01:59;75.53;;;44.80;;
26040;SDS011;13816;53.628;9.950;2022-12-16T23:04:46;69.00;;;44.90;;
26040;SDS011;13816;53.628;9.950;2022-12-16T23:07:31;72.27;;;45.23;;
26040;SDS011;13816;53.628;9.950;2022-12-16T23:10:27;67.43;;;45.07;;
26040;SDS011;13816;53.628;9.950;2022-12-16T23:13:31;68.40;;;41.20;;
26040;SDS011;13816;53.628;9.950;2022-12-16T23:16:16;66.40;;;42.60;;
26040;SDS011;13816;53.628;9.950;2022-12-16T23:19:01;70.40;;;45.43;;
26040;SDS011;13816;53.628;9.950;2022-12-16T23:21:46;74.60;;;46.50;;
26040;SDS011;13816;53.628;9.950;2022-12-16T23:24:39;69.60;;;43.27;;
26040;SDS011;13816;53.628;9.950;2022-12-16T23:27:50;69.27;;;46.27;;
26040;SDS011;13816;53.628;9.950;2022-12-16T23:30:34;71.53;;;42.93;;
26040;SDS011;13816;53.628;9.950;2022-12-16T23:33:19;74.47;;;44.07;;
26040;SDS011;13816;53.628;9.950;2022-12-16T23:36:05;73.77;;;44.93;;
26040;SDS011;13816;53.628;9.950;2022-12-16T23:38:50;72.87;;;41.50;;
26040;SDS011;13816;53.628;9.950;2022-12-16T23:41:35;71.33;;;43.60;;
26040;SDS011;13816;53.628;9.950;2022-12-16T23:44:22;69.93;;;42.90;;
26040;SDS011;13816;53.628;9.950;2022-12-16T23:47:07;73.53;;;45.07;;
26040;SDS011;13816;53.628;9.950;2022-12-16T23:49:52;67.47;;;41.73;;
26040;SDS011;13816;53.628;9.950;2022-12-16T23:52:36;72.53;;;44.37;;
26040;SDS011;13816;53.628;9.950;2022-12-16T23:55:24;76.20;;;43.53;;
26040;SDS011;13816;53.628;9.950;2022-12-16T23:58:15;76.63;;;46.10;;
